Time;durP1;ratioP1;P1;durP2;ratioP2;P2;SDS_P1;SDS_P2;PMS_P1;PMS_P2;Temp;Humidity;BMP_temperature;BMP_pressure;BME280_temperature;BME280_humidity;BME280_pressure;Samples;Min_cycle;Max_cycle;Signal;HPM_P1;HPM_P2
2023/10/20 00:02:07;;;;;;;;;;;15.80;55.70;;;;;;217904;1292;22767;-62
2023/10/20 00:07:11;;;;;;;;;;;15.80;55.80;;;;;;218253;1289;25587;-63
2023/10/20 00:12:13;;;;;;;;;;;15.70;55.80;;;;;;217860;1292;22724;-62
2023/10/20 00:17:16;;;;;;;;;;;15.80;55.80;;;;;;218413;1292;22678;-62
2023/10/20 00:22:19;;;;;;;;;;;15.70;55.70;;;;;;218222;1292;22620;-63
2023/10/20 00:27:22;;;;;;;;;;;15.80;55.90;;;;;;218061;1295;26516;-60
2023/10/20 00:32:25;;;;;;;;;;;15.80;55.90;;;;;;218107;1279;22583;-61
2023/10/20 00:37:29;;;;;;;;;;;15.70;55.90;;;;;;218330;1290;25661;-61
2023/10/20 00:42:31;;;;;;;;;;;15.80;55.90;;;;;;218221;1289;22875;-61
2023/10/20 00:47:36;;;;;;;;;;;15.70;55.90;;;;;;218412;1292;22562;-61
2023/10/20 00:52:44;;;;;;;;;;;15.80;55.80;;;;;;218201;1280;25236;-60
2023/10/20 00:57:48;;;;;;;;;;;15.80;55.90;;;;;;218214;1279;25229;-60
2023/10/20 01:02:53;;;;;;;;;;;15.70;55.90;;;;;;218455;1292;22925;-62
2023/10/20 01:07:56;;;;;;;;;;;15.80;55.90;;;;;;218424;1289;22725;-61
2023/10/20 01:12:58;;;;;;;;;;;15.80;55.90;;;;;;218310;1294;24258;-61
2023/10/20 01:18:01;;;;;;;;;;;15.70;56.00;;;;;;218324;1292;22892;-60
2023/10/20 01:23:04;;;;;;;;;;;15.70;56.60;;;;;;217979;1292;22637;-61
2023/10/20 01:28:07;;;;;;;;;;;15.70;56.10;;;;;;218007;1292;22550;-61
2023/10/20 01:33:10;;;;;;;;;;;15.70;56.00;;;;;;218203;1293;22537;-62
2023/10/20 01:38:12;;;;;;;;;;;15.70;56.00;;;;;;218125;1295;24234;-61
2023/10/20 01:43:15;;;;;;;;;;;15.80;56.10;;;;;;218178;1295;22637;-62
2023/10/20 01:48:17;;;;;;;;;;;15.70;56.00;;;;;;218172;1295;22650;-60
2023/10/20 01:53:20;;;;;;;;;;;15.70;56.10;;;;;;218296;1287;22720;-62
2023/10/20 01:58:23;;;;;;;;;;;15.70;56.10;;;;;;217925;1295;22542;-64
2023/10/20 02:03:26;;;;;;;;;;;15.70;56.10;;;;;;218215;1292;25235;-63
2023/10/20 02:08:29;;;;;;;;;;;15.80;56.00;;;;;;217978;1295;24400;-61
2023/10/20 02:13:35;;;;;;;;;;;15.70;56.10;;;;;;218068;1295;23929;-62
2023/10/20 02:18:39;;;;;;;;;;;15.70;56.10;;;;;;218130;1282;22532;-62
2023/10/20 02:23:42;;;;;;;;;;;15.70;56.50;;;;;;217985;1295;24333;-62
2023/10/20 02:28:45;;;;;;;;;;;15.70;56.10;;;;;;218098;1295;22530;-62
2023/10/20 02:33:48;;;;;;;;;;;15.70;56.30;;;;;;217972;1289;22531;-62
2023/10/20 02:38:52;;;;;;;;;;;15.70;56.30;;;;;;218465;1292;22530;-61
2023/10/20 02:43:54;;;;;;;;;;;15.60;56.50;;;;;;218214;1282;25443;-63
2023/10/20 02:48:58;;;;;;;;;;;15.70;56.60;;;;;;218208;1295;25559;-60
2023/10/20 02:54:01;;;;;;;;;;;15.70;56.30;;;;;;218047;1289;22642;-61
2023/10/20 02:59:04;;;;;;;;;;;15.70;55.90;;;;;;217946;1295;24264;-61
2023/10/20 03:04:07;;;;;;;;;;;15.70;56.20;;;;;;218196;1295;24245;-60
2023/10/20 03:09:13;;;;;;;;;;;15.70;56.20;;;;;;218122;1295;245687;-60
2023/10/20 03:14:17;;;;;;;;;;;15.70;56.10;;;;;;218366;1295;25287;-61
2023/10/20 03:19:20;;;;;;;;;;;15.70;56.30;;;;;;218362;1295;23940;-61
2023/10/20 03:24:23;;;;;;;;;;;15.70;56.30;;;;;;217886;1295;23878;-61
2023/10/20 03:29:26;;;;;;;;;;;15.60;56.20;;;;;;217814;1295;22770;-61
2023/10/20 03:34:31;;;;;;;;;;;15.70;56.20;;;;;;218051;1285;22534;-61
2023/10/20 03:39:36;;;;;;;;;;;15.70;56.20;;;;;;218366;1292;22536;-62
2023/10/20 03:44:40;;;;;;;;;;;15.70;56.10;;;;;;218046;1292;22533;-61
2023/10/20 03:49:43;;;;;;;;;;;15.70;56.40;;;;;;218427;1295;22652;-61
2023/10/20 03:54:46;;;;;;;;;;;15.70;56.10;;;;;;218579;1281;22617;-61
2023/10/20 03:59:48;;;;;;;;;;;15.70;56.10;;;;;;218250;1286;24291;-60
2023/10/20 04:04:51;;;;;;;;;;;15.70;56.20;;;;;;218107;1282;23950;-61
2023/10/20 04:09:53;;;;;;;;;;;15.70;56.30;;;;;;218450;1289;22541;-60
2023/10/20 04:14:57;;;;;;;;;;;15.70;56.30;;;;;;218001;1295;23927;-59
2023/10/20 04:20:02;;;;;;;;;;;15.60;56.30;;;;;;218400;1292;22539;-62
2023/10/20 04:25:05;;;;;;;;;;;15.70;56.30;;;;;;218200;1295;25254;-61
2023/10/20 05:02:39;;;;;;;;;;;15.60;56.30;;;;;;218254;1295;22665;-61
2023/10/20 05:07:49;;;;;;;;;;;15.60;56.30;;;;;;218369;1289;22524;-61
2023/10/20 05:12:52;;;;;;;;;;;15.60;56.70;;;;;;218316;1295;24389;-62
2023/10/20 05:17:54;;;;;;;;;;;15.60;56.40;;;;;;217938;1295;22674;-63
2023/10/20 05:22:58;;;;;;;;;;;15.60;56.40;;;;;;218322;1292;25725;-62
2023/10/20 05:28:01;;;;;;;;;;;15.60;56.40;;;;;;218047;1279;22540;-62
2023/10/20 05:33:04;;;;;;;;;;;15.60;56.90;;;;;;218406;1295;22527;-62
2023/10/20 05:38:07;;;;;;;;;;;15.60;56.40;;;;;;218187;1292;22530;-61
2023/10/20 05:43:10;;;;;;;;;;;15.60;56.90;;;;;;218123;1295;23908;-61
2023/10/20 05:48:13;;;;;;;;;;;15.60;56.60;;;;;;217807;1292;22753;-62
2023/10/20 05:53:16;;;;;;;;;;;15.60;56.60;;;;;;218301;1280;24224;-62
2023/10/20 05:58:19;;;;;;;;;;;15.70;56.50;;;;;;218495;1288;22633;-61
2023/10/20 06:03:21;;;;;;;;;;;15.60;56.50;;;;;;218248;1295;22700;-62
2023/10/20 06:08:24;;;;;;;;;;;15.60;56.60;;;;;;217996;1295;23045;-62
2023/10/20 06:13:27;;;;;;;;;;;15.70;56.50;;;;;;218357;1292;22682;-61
2023/10/20 06:18:29;;;;;;;;;;;15.70;56.50;;;;;;218421;1295;22531;-62
2023/10/20 06:23:38;;;;;;;;;;;15.70;56.50;;;;;;217921;1295;22520;-62
2023/10/20 06:28:43;;;;;;;;;;;15.70;56.50;;;;;;218654;1295;22667;-62
2023/10/20 06:33:55;;;;;;;;;;;15.70;56.50;;;;;;217956;1279;24238;-61
2023/10/20 06:38:58;;;;;;;;;;;15.60;56.60;;;;;;218317;1285;23872;-63
2023/10/20 06:44:00;;;;;;;;;;;15.60;56.60;;;;;;218096;1295;22657;-62
2023/10/20 06:49:04;;;;;;;;;;;15.60;56.60;;;;;;217956;1295;24198;-60
2023/10/20 06:54:06;;;;;;;;;;;15.60;56.60;;;;;;218154;1295;22526;-62
2023/10/20 06:59:13;;;;;;;;;;;15.60;56.60;;;;;;218085;1294;22673;-61
2023/10/20 07:04:16;;;;;;;;;;;15.60;56.60;;;;;;218112;1295;22612;-62
2023/10/20 07:09:20;;;;;;;;;;;15.60;56.60;;;;;;218390;1292;25369;-61
2023/10/20 07:14:23;;;;;;;;;;;15.70;56.50;;;;;;217762;1295;23961;-62
2023/10/20 07:19:25;;;;;;;;;;;15.70;56.60;;;;;;218141;1294;22546;-61
2023/10/20 07:24:29;;;;;;;;;;;15.60;56.60;;;;;;217981;1295;22536;-61
2023/10/20 07:29:31;;;;;;;;;;;15.60;56.60;;;;;;218562;1289;23898;-60
2023/10/20 07:34:35;;;;;;;;;;;15.70;56.60;;;;;;218066;1295;22770;-61
2023/10/20 07:39:38;;;;;;;;;;;15.70;56.60;;;;;;217978;1295;24256;-61
2023/10/20 07:44:41;;;;;;;;;;;15.80;56.40;;;;;;218115;1289;24211;-61
2023/10/20 07:49:43;;;;;;;;;;;15.80;56.40;;;;;;218165;1289;22527;-61
2023/10/20 07:54:46;;;;;;;;;;;15.70;56.50;;;;;;217970;1295;22527;-61
2023/10/20 07:59:49;;;;;;;;;;;15.80;56.50;;;;;;218157;1295;22531;-61
2023/10/20 08:04:51;;;;;;;;;;;15.70;56.50;;;;;;217815;1295;22527;-61
2023/10/20 08:09:54;;;;;;;;;;;15.80;56.50;;;;;;218490;1294;22644;-61
2023/10/20 08:14:58;;;;;;;;;;;15.70;56.50;;;;;;218085;1292;22658;-61
2023/10/20 08:20:01;;;;;;;;;;;15.80;56.50;;;;;;218421;1289;22687;-60
2023/10/20 08:25:04;;;;;;;;;;;15.70;56.60;;;;;;217950;1295;22527;-61
2023/10/20 08:30:07;;;;;;;;;;;15.70;56.60;;;;;;217989;1295;22549;-61
2023/10/20 08:35:10;;;;;;;;;;;15.80;56.60;;;;;;218504;1292;23067;-61
2023/10/20 08:40:13;;;;;;;;;;;15.80;56.90;;;;;;217959;1295;24254;-60
2023/10/20 08:45:16;;;;;;;;;;;15.80;56.50;;;;;;218226;1295;22541;-61
2023/10/20 08:50:21;;;;;;;;;;;15.80;56.70;;;;;;218089;1292;22521;-61
2023/10/20 08:55:23;;;;;;;;;;;15.70;56.60;;;;;;218204;1287;24231;-60
2023/10/20 09:00:27;;;;;;;;;;;15.80;56.70;;;;;;218312;1289;22649;-61
2023/10/20 09:05:32;;;;;;;;;;;15.80;56.50;;;;;;217787;1295;22621;-61
2023/10/20 09:10:35;;;;;;;;;;;15.80;56.70;;;;;;218216;1295;22606;-61
2023/10/20 09:15:38;;;;;;;;;;;15.70;56.60;;;;;;218237;1295;22530;-61
2023/10/20 09:20:41;;;;;;;;;;;15.80;57.00;;;;;;217995;1295;22710;-60
2023/10/20 09:25:43;;;;;;;;;;;15.80;56.60;;;;;;218064;1292;22792;-60
2023/10/20 09:30:48;;;;;;;;;;;15.80;56.70;;;;;;217948;1289;22542;-61
2023/10/20 09:35:52;;;;;;;;;;;15.80;56.80;;;;;;218048;1292;24218;-60
2023/10/20 09:41:07;;;;;;;;;;;15.70;56.60;;;;;;218140;1295;22609;-62
2023/10/20 09:46:31;;;;;;;;;;;15.80;56.90;;;;;;218210;1291;25265;-61
2023/10/20 09:51:34;;;;;;;;;;;15.80;56.60;;;;;;217535;1288;22624;-62
2023/10/20 09:56:38;;;;;;;;;;;15.80;56.70;;;;;;217847;1292;24225;-60
2023/10/20 10:01:42;;;;;;;;;;;15.80;56.70;;;;;;218253;1280;24036;-63
2023/10/20 10:06:48;;;;;;;;;;;15.80;56.70;;;;;;218165;1289;25035;-62
2023/10/20 10:11:53;;;;;;;;;;;15.80;56.70;;;;;;218215;1295;24409;-60
2023/10/20 10:16:56;;;;;;;;;;;15.70;56.70;;;;;;218150;1290;24224;-61
2023/10/20 10:22:02;;;;;;;;;;;15.80;56.90;;;;;;218199;1280;25412;-61
2023/10/20 10:27:08;;;;;;;;;;;15.80;56.80;;;;;;218068;1295;22550;-61
2023/10/20 10:32:12;;;;;;;;;;;15.70;57.10;;;;;;218431;1295;23802;-62
2023/10/20 10:37:18;;;;;;;;;;;15.80;56.90;;;;;;218072;1293;22642;-62
2023/10/20 10:42:22;;;;;;;;;;;15.80;56.90;;;;;;218258;1292;22682;-60
2023/10/20 10:47:25;;;;;;;;;;;15.80;56.90;;;;;;218271;1293;22534;-61
2023/10/20 10:52:32;;;;;;;;;;;15.80;57.30;;;;;;218249;1295;22534;-61
2023/10/20 10:57:35;;;;;;;;;;;15.80;57.00;;;;;;218145;1295;24061;-61
2023/10/20 11:02:38;;;;;;;;;;;15.80;57.00;;;;;;217942;1292;24120;-62
2023/10/20 11:07:40;;;;;;;;;;;15.80;57.10;;;;;;218091;1292;22624;-62
2023/10/20 11:12:48;;;;;;;;;;;15.80;57.20;;;;;;217881;1295;24228;-61
2023/10/20 11:17:50;;;;;;;;;;;15.80;57.10;;;;;;218292;1295;22525;-62
2023/10/20 11:22:54;;;;;;;;;;;15.80;57.10;;;;;;218213;1289;22537;-61
2023/10/20 11:27:57;;;;;;;;;;;15.80;57.10;;;;;;218033;1295;22618;-62
2023/10/20 11:33:00;;;;;;;;;;;15.80;57.10;;;;;;218346;1292;22546;-61
2023/10/20 11:38:05;;;;;;;;;;;15.70;57.50;;;;;;218142;1295;22541;-60
2023/10/20 11:43:07;;;;;;;;;;;15.80;57.40;;;;;;218004;1289;22559;-62
2023/10/20 11:48:10;;;;;;;;;;;15.70;57.90;;;;;;218412;1295;24246;-62
2023/10/20 11:53:13;;;;;;;;;;;15.70;57.40;;;;;;217914;1292;22517;-61
2023/10/20 11:58:17;;;;;;;;;;;15.80;57.40;;;;;;218184;1295;24495;-62
2023/10/20 12:03:20;;;;;;;;;;;15.70;57.80;;;;;;218165;1295;22541;-63
2023/10/20 12:08:23;;;;;;;;;;;15.70;57.70;;;;;;218057;1295;23812;-62
2023/10/20 12:13:26;;;;;;;;;;;15.70;57.40;;;;;;218247;1295;25027;-61
2023/10/20 12:18:28;;;;;;;;;;;15.80;57.60;;;;;;218279;1295;22593;-60
2023/10/20 12:23:31;;;;;;;;;;;15.80;57.50;;;;;;217777;1295;22530;-66
2023/10/20 12:28:34;;;;;;;;;;;15.80;57.60;;;;;;218455;1293;24385;-61
2023/10/20 12:33:37;;;;;;;;;;;15.70;57.70;;;;;;218095;1294;22659;-61
2023/10/20 12:38:43;;;;;;;;;;;15.70;57.70;;;;;;217663;1295;24093;-61
2023/10/20 12:43:47;;;;;;;;;;;15.80;57.40;;;;;;218338;1295;23782;-61
2023/10/20 12:48:50;;;;;;;;;;;15.80;57.60;;;;;;218285;1279;22540;-62
2023/10/20 12:53:53;;;;;;;;;;;15.80;57.40;;;;;;217799;1295;23926;-61
2023/10/20 12:58:56;;;;;;;;;;;15.70;57.80;;;;;;218254;1292;22520;-61
2023/10/20 13:03:59;;;;;;;;;;;15.70;58.00;;;;;;218344;1289;22551;-62
2023/10/20 13:09:02;;;;;;;;;;;15.70;58.70;;;;;;217963;1290;24236;-61
2023/10/20 13:14:05;;;;;;;;;;;15.70;57.80;;;;;;218227;1295;23936;-61
2023/10/20 13:19:07;;;;;;;;;;;15.70;57.80;;;;;;218054;1294;24231;-62
2023/10/20 13:24:11;;;;;;;;;;;15.70;58.00;;;;;;218278;1292;22773;-62
2023/10/20 13:29:13;;;;;;;;;;;15.70;58.10;;;;;;218007;1287;22538;-62
2023/10/20 13:34:16;;;;;;;;;;;15.70;58.10;;;;;;217846;1295;24045;-62
2023/10/20 13:39:22;;;;;;;;;;;15.80;58.40;;;;;;217749;1295;22770;-59
2023/10/20 13:44:33;;;;;;;;;;;15.70;57.90;;;;;;218217;1287;24244;-61
2023/10/20 13:49:36;;;;;;;;;;;15.80;57.80;;;;;;218193;1295;22523;-63
2023/10/20 13:54:39;;;;;;;;;;;15.80;58.00;;;;;;217897;1295;23949;-61
2023/10/20 13:59:41;;;;;;;;;;;15.90;57.90;;;;;;218538;1292;24255;-62
2023/10/20 14:04:44;;;;;;;;;;;15.80;58.10;;;;;;218057;1292;25549;-61
2023/10/20 14:09:47;;;;;;;;;;;15.80;57.90;;;;;;217970;1290;22611;-63
2023/10/20 14:14:49;;;;;;;;;;;15.80;58.10;;;;;;218041;1295;25592;-61
2023/10/20 14:19:52;;;;;;;;;;;15.70;58.30;;;;;;217964;1280;22533;-61
2023/10/20 14:24:55;;;;;;;;;;;15.80;58.10;;;;;;218205;1292;22597;-62
2023/10/20 14:29:57;;;;;;;;;;;15.70;58.30;;;;;;218031;1295;22533;-61
2023/10/20 14:35:00;;;;;;;;;;;15.80;58.30;;;;;;218025;1295;22627;-61
2023/10/20 14:40:03;;;;;;;;;;;15.70;58.20;;;;;;218162;1295;22541;-62
2023/10/20 14:45:06;;;;;;;;;;;15.80;58.10;;;;;;218457;1294;23019;-61
2023/10/20 14:50:10;;;;;;;;;;;15.90;58.00;;;;;;218218;1294;22785;-62
2023/10/20 14:55:13;;;;;;;;;;;15.80;57.70;;;;;;218367;1292;22586;-61
2023/10/20 15:00:16;;;;;;;;;;;15.80;58.00;;;;;;218126;1295;23929;-61
2023/10/20 15:05:19;;;;;;;;;;;15.80;58.30;;;;;;218284;1295;190546;-62
2023/10/20 15:10:22;;;;;;;;;;;15.80;58.10;;;;;;218285;1295;22528;-62
2023/10/20 15:15:28;;;;;;;;;;;15.70;58.60;;;;;;217967;1295;22650;-61
2023/10/20 15:20:31;;;;;;;;;;;15.80;58.50;;;;;;218309;1295;25484;-61
2023/10/20 15:25:37;;;;;;;;;;;15.80;58.30;;;;;;217759;1289;22523;-61
2023/10/20 15:30:39;;;;;;;;;;;15.80;58.40;;;;;;218094;1289;22536;-62
2023/10/20 15:35:42;;;;;;;;;;;15.80;58.60;;;;;;218218;1295;22559;-59
2023/10/20 15:40:51;;;;;;;;;;;15.70;58.60;;;;;;218208;1292;23862;-60
2023/10/20 15:45:54;;;;;;;;;;;15.80;58.10;;;;;;218170;1295;24386;-61
2023/10/20 15:50:57;;;;;;;;;;;15.80;58.60;;;;;;218081;1292;23577;-61
2023/10/20 15:55:59;;;;;;;;;;;15.80;58.50;;;;;;217922;1295;22668;-61
2023/10/20 16:01:04;;;;;;;;;;;15.80;58.40;;;;;;217931;1295;24384;-62
2023/10/20 16:06:11;;;;;;;;;;;15.80;58.30;;;;;;218446;1295;22540;-61
2023/10/20 16:11:14;;;;;;;;;;;15.80;58.60;;;;;;217992;1281;22652;-61
2023/10/20 16:16:23;;;;;;;;;;;15.80;58.60;;;;;;218097;1289;22533;-61
2023/10/20 16:21:26;;;;;;;;;;;15.80;58.80;;;;;;218309;1292;22523;-60
2023/10/20 16:26:29;;;;;;;;;;;15.90;58.40;;;;;;217999;1280;25342;-62
2023/10/20 16:31:32;;;;;;;;;;;15.80;58.50;;;;;;218370;1287;22661;-62
2023/10/20 16:36:35;;;;;;;;;;;15.90;58.30;;;;;;217933;1295;22636;-61
2023/10/20 16:41:38;;;;;;;;;;;15.80;58.40;;;;;;217991;1295;22531;-62
2023/10/20 16:46:42;;;;;;;;;;;15.80;59.10;;;;;;218020;1295;22663;-60
2023/10/20 16:51:45;;;;;;;;;;;15.90;58.30;;;;;;218425;1293;22533;-61
2023/10/20 16:56:48;;;;;;;;;;;15.80;58.80;;;;;;218236;1292;22530;-61
2023/10/20 17:01:51;;;;;;;;;;;15.80;58.50;;;;;;218009;1295;26102;-62
2023/10/20 17:06:54;;;;;;;;;;;15.70;58.80;;;;;;218264;1295;25290;-61
2023/10/20 17:11:58;;;;;;;;;;;15.80;58.80;;;;;;218480;1290;22529;-62
2023/10/20 17:17:01;;;;;;;;;;;15.90;58.90;;;;;;217976;1295;22544;-60
2023/10/20 17:22:06;;;;;;;;;;;15.80;59.00;;;;;;218086;1289;22628;-61
2023/10/20 17:27:09;;;;;;;;;;;15.90;58.50;;;;;;218401;1289;22543;-61
2023/10/20 17:32:14;;;;;;;;;;;15.80;58.50;;;;;;217956;1289;22534;-62
2023/10/20 17:37:17;;;;;;;;;;;15.90;58.90;;;;;;217907;1295;23058;-61
2023/10/20 17:42:20;;;;;;;;;;;15.90;58.40;;;;;;218103;1292;23927;-61
2023/10/20 17:47:26;;;;;;;;;;;15.80;58.70;;;;;;218061;1295;22665;-61
2023/10/20 17:52:30;;;;;;;;;;;15.80;58.90;;;;;;218101;1295;25362;-61
2023/10/20 17:57:35;;;;;;;;;;;15.80;58.50;;;;;;217881;1295;24248;-61
2023/10/20 18:02:38;;;;;;;;;;;15.90;58.50;;;;;;218291;1289;25215;-61
2023/10/20 18:07:42;;;;;;;;;;;15.90;58.40;;;;;;218264;1295;22530;-61
2023/10/20 18:12:46;;;;;;;;;;;15.80;59.00;;;;;;218012;1280;25455;-61
2023/10/20 18:17:50;;;;;;;;;;;15.80;58.80;;;;;;218297;1294;25521;-61
2023/10/20 18:22:55;;;;;;;;;;;15.70;58.90;;;;;;218138;1295;22536;-61
2023/10/20 18:28:00;;;;;;;;;;;15.80;59.20;;;;;;218093;1279;22627;-60
2023/10/20 18:33:03;;;;;;;;;;;15.80;59.00;;;;;;218471;1279;25417;-61
2023/10/20 18:38:08;;;;;;;;;;;15.80;59.00;;;;;;218145;1289;25287;-60
2023/10/20 18:43:13;;;;;;;;;;;15.80;58.90;;;;;;218157;1295;24250;-61
2023/10/20 18:48:18;;;;;;;;;;;15.80;58.80;;;;;;218283;1289;22656;-62
2023/10/20 18:53:22;;;;;;;;;;;15.80;58.90;;;;;;218422;1295;24295;-62
2023/10/20 18:58:27;;;;;;;;;;;15.80;58.90;;;;;;218316;1295;22537;-61
2023/10/20 19:03:33;;;;;;;;;;;15.80;59.20;;;;;;218124;1292;22533;-61
2023/10/20 19:08:45;;;;;;;;;;;15.80;59.30;;;;;;218443;1295;22553;-62
2023/10/20 19:13:51;;;;;;;;;;;15.90;58.80;;;;;;218368;1292;24290;-61
2023/10/20 19:18:56;;;;;;;;;;;15.90;58.90;;;;;;218135;1295;22534;-61
2023/10/20 19:24:02;;;;;;;;;;;15.80;58.90;;;;;;218538;1295;22533;-60
2023/10/20 19:29:07;;;;;;;;;;;15.80;59.10;;;;;;217617;1297;22584;-61
2023/10/20 19:34:13;;;;;;;;;;;15.80;59.30;;;;;;217343;1295;22534;-61
2023/10/20 19:39:18;;;;;;;;;;;15.80;58.90;;;;;;217848;1297;22621;-61
2023/10/20 19:44:21;;;;;;;;;;;15.80;59.00;;;;;;217780;1295;25958;-60
2023/10/20 19:49:26;;;;;;;;;;;15.80;58.90;;;;;;217615;1282;24302;-61
2023/10/20 19:54:30;;;;;;;;;;;15.80;59.00;;;;;;217629;1298;22530;-60
2023/10/20 19:59:33;;;;;;;;;;;15.90;59.00;;;;;;217636;1295;22530;-61
2023/10/20 20:04:37;;;;;;;;;;;15.80;59.00;;;;;;217545;1292;25712;-61
2023/10/20 20:09:40;;;;;;;;;;;15.80;58.90;;;;;;218550;1290;22526;-61
2023/10/20 20:14:44;;;;;;;;;;;15.80;59.20;;;;;;218582;1295;22651;-62
2023/10/20 20:19:48;;;;;;;;;;;15.80;59.20;;;;;;218198;1295;23594;-62
2023/10/20 20:24:51;;;;;;;;;;;15.80;59.20;;;;;;218161;1295;22564;-60
2023/10/20 20:29:54;;;;;;;;;;;15.80;59.30;;;;;;218337;1295;24477;-61
2023/10/20 20:34:57;;;;;;;;;;;15.90;58.80;;;;;;218313;1292;22547;-61
2023/10/20 20:39:59;;;;;;;;;;;15.90;58.90;;;;;;217873;1295;23944;-61
2023/10/20 20:45:03;;;;;;;;;;;15.90;59.10;;;;;;218365;1295;24218;-61
2023/10/20 20:50:06;;;;;;;;;;;15.80;59.10;;;;;;218264;1295;22543;-61
2023/10/20 20:55:17;;;;;;;;;;;15.90;58.80;;;;;;218581;1292;23957;-61
2023/10/20 21:00:20;;;;;;;;;;;15.90;59.00;;;;;;218328;1295;24271;-60
2023/10/20 21:05:23;;;;;;;;;;;15.90;58.90;;;;;;217962;1294;22665;-61
2023/10/20 21:10:28;;;;;;;;;;;15.90;59.10;;;;;;218012;1292;22523;-61
2023/10/20 21:15:31;;;;;;;;;;;16.00;59.40;;;;;;218345;1294;22831;-61
2023/10/20 21:20:37;;;;;;;;;;;16.00;58.90;;;;;;218028;1294;22582;-60
2023/10/20 21:25:39;;;;;;;;;;;16.00;59.00;;;;;;218255;1295;22853;-62
2023/10/20 21:30:42;;;;;;;;;;;16.00;59.00;;;;;;218416;1292;22655;-61
2023/10/20 21:35:45;;;;;;;;;;;16.00;58.90;;;;;;218435;1295;22553;-61
2023/10/20 21:40:47;;;;;;;;;;;16.00;59.10;;;;;;217951;1292;22523;-60
2023/10/20 21:45:55;;;;;;;;;;;15.90;59.10;;;;;;218207;1286;22543;-61
2023/10/20 21:50:58;;;;;;;;;;;15.80;59.50;;;;;;218167;1295;22569;-61
2023/10/20 21:56:02;;;;;;;;;;;15.80;59.40;;;;;;218235;1292;22521;-61
2023/10/20 22:01:05;;;;;;;;;;;15.90;59.40;;;;;;218147;1295;22549;-61
2023/10/20 22:06:08;;;;;;;;;;;15.80;60.20;;;;;;218105;1295;22602;-62
2023/10/20 22:11:11;;;;;;;;;;;15.80;59.50;;;;;;218212;1295;22781;-62
2023/10/20 22:16:14;;;;;;;;;;;15.90;59.60;;;;;;218280;1292;22659;-61
2023/10/20 22:21:17;;;;;;;;;;;15.90;59.40;;;;;;218153;1292;22526;-61
2023/10/20 22:26:19;;;;;;;;;;;15.90;60.10;;;;;;218195;1295;22524;-61
2023/10/20 22:31:22;;;;;;;;;;;15.90;59.70;;;;;;218157;1295;22536;-61
2023/10/20 22:36:25;;;;;;;;;;;16.00;59.90;;;;;;218146;1279;22536;-62
2023/10/20 22:41:28;;;;;;;;;;;16.00;59.90;;;;;;218092;1285;24182;-60
2023/10/20 22:46:30;;;;;;;;;;;16.00;60.00;;;;;;218072;1292;22640;-60
2023/10/20 22:51:33;;;;;;;;;;;16.00;59.80;;;;;;218416;1292;24136;-60
2023/10/20 22:56:35;;;;;;;;;;;16.10;59.90;;;;;;218009;1295;22540;-61
2023/10/20 23:01:38;;;;;;;;;;;16.00;60.00;;;;;;218188;1292;22535;-61
2023/10/20 23:06:41;;;;;;;;;;;16.00;59.90;;;;;;218091;1288;22540;-61
2023/10/20 23:11:44;;;;;;;;;;;16.00;60.10;;;;;;217937;1289;25353;-62
2023/10/20 23:16:47;;;;;;;;;;;16.00;60.00;;;;;;217994;1282;22532;-61
2023/10/20 23:21:50;;;;;;;;;;;16.00;60.30;;;;;;218222;1295;24228;-61
2023/10/20 23:26:52;;;;;;;;;;;16.00;59.90;;;;;;218218;1292;22528;-61
2023/10/20 23:31:56;;;;;;;;;;;16.00;60.40;;;;;;218215;1292;23943;-61
2023/10/20 23:37:00;;;;;;;;;;;16.10;59.90;;;;;;218143;1289;25235;-61
2023/10/20 23:42:03;;;;;;;;;;;16.00;60.30;;;;;;218117;1292;22664;-62
2023/10/20 23:47:06;;;;;;;;;;;16.00;60.30;;;;;;218311;1289;22537;-61
2023/10/20 23:52:09;;;;;;;;;;;16.00;60.40;;;;;;217994;1292;22559;-61
2023/10/20 23:57:12;;;;;;;;;;;16.00;60.50;;;;;;218206;1295;23364;-62
